createdAt,value
2022-09-05T00:00:35.961Z,100519.53
2022-09-05T00:01:28.761Z,100518.22
2022-09-05T00:02:25.416Z,100515.50
2022-09-05T00:03:35.742Z,100507.34
2022-09-05T00:04:38.694Z,100512.31
2022-09-05T00:05:44.223Z,100515.47
2022-09-05T00:06:51.190Z,100519.91
2022-09-05T00:07:58.427Z,100514.47
2022-09-05T00:08:58.374Z,100511.94
2022-09-05T00:10:10.131Z,100514.25
2022-09-05T00:11:16.712Z,100515.09
2022-09-05T00:12:13.887Z,100519.50
2022-09-05T00:13:07.256Z,100519.03
2022-09-05T00:14:34.248Z,100514.34
2022-09-05T00:15:32.412Z,100521.81
2022-09-05T00:16:34.992Z,100525.84
2022-09-05T00:18:26.704Z,100521.28
2022-09-05T00:24:17.105Z,100513.69
2022-09-05T00:24:20.826Z,100528.37
2022-09-05T00:24:28.185Z,100524.66
2022-09-05T00:24:29.482Z,100522.31
2022-09-05T00:25:14.396Z,100517.53
2022-09-05T00:26:14.391Z,100521.28
2022-09-05T00:27:07.792Z,100519.09
2022-09-05T00:28:26.568Z,100519.66
2022-09-05T00:31:07.017Z,100516.97
2022-09-05T00:31:07.325Z,100520.34
2022-09-05T00:32:17.148Z,100520.88
2022-09-05T00:33:22.521Z,100512.50
2022-09-05T00:34:47.204Z,100514.66
2022-09-05T00:35:57.371Z,100513.81
2022-09-05T00:36:50.472Z,100521.75
2022-09-05T00:37:40.559Z,100517.72
2022-09-05T00:38:36.515Z,100523.12
2022-09-05T00:39:34.422Z,100519.97
2022-09-05T00:40:34.113Z,100518.75
2022-09-05T00:41:22.050Z,100516.59
2022-09-05T00:42:14.621Z,100516.59
2022-09-05T00:43:23.441Z,100507.59
2022-09-05T00:44:13.006Z,100523.88
2022-09-05T00:45:02.833Z,100518.56
2022-09-05T00:46:11.247Z,100519.41
2022-09-05T00:47:09.600Z,100519.75
2022-09-05T00:48:06.259Z,100528.53
2022-09-05T00:49:11.411Z,100525.66
2022-09-05T00:50:06.071Z,100530.34
2022-09-05T00:51:15.192Z,100532.56
2022-09-05T00:52:02.661Z,100527.69
2022-09-05T00:53:06.607Z,100524.50
2022-09-05T00:54:18.931Z,100530.97
2022-09-05T00:55:23.810Z,100525.94
2022-09-05T00:56:33.551Z,100526.25
2022-09-05T00:57:46.771Z,100525.75
2022-09-05T00:59:05.641Z,100524.94
2022-09-05T00:59:58.921Z,100520.34
2022-09-05T01:00:49.940Z,100517.97
2022-09-05T01:01:45.917Z,100515.91
2022-09-05T01:02:51.226Z,100526.94
2022-09-05T01:03:53.721Z,100528.81
2022-09-05T01:05:01.281Z,100529.13
2022-09-05T01:06:18.121Z,100526.62
2022-09-05T01:07:21.991Z,100527.28
2022-09-05T01:08:30.472Z,100533.06
2022-09-05T01:09:23.171Z,100533.22
2022-09-05T01:10:23.710Z,100531.00
2022-09-05T01:11:29.291Z,100529.81
2022-09-05T01:12:52.625Z,100530.47
2022-09-05T01:13:44.040Z,100530.84
2022-09-05T01:15:03.035Z,100538.81
2022-09-05T01:15:57.841Z,100530.84
2022-09-05T01:17:09.656Z,100535.75
2022-09-05T01:18:08.851Z,100541.56
2022-09-05T01:18:55.562Z,100540.34
2022-09-05T01:20:18.933Z,100543.25
2022-09-05T01:21:25.590Z,100542.56
2022-09-05T01:22:33.912Z,100536.31
2022-09-05T01:23:58.981Z,100531.28
2022-09-05T01:25:27.253Z,100540.25
2022-09-05T01:26:42.980Z,100532.28
2022-09-05T01:28:25.279Z,100535.56
2022-09-05T01:29:16.604Z,100539.59
2022-09-05T01:30:10.642Z,100538.75
2022-09-05T01:31:05.352Z,100536.69
2022-09-05T01:32:24.991Z,100539.41
2022-09-05T01:33:43.431Z,100537.72
2022-09-05T01:34:47.170Z,100534.34
2022-09-05T01:35:56.203Z,100533.13
2022-09-05T01:37:33.080Z,100534.34
2022-09-05T01:38:29.172Z,100536.22
2022-09-05T01:40:11.911Z,100534.41
2022-09-05T01:40:44.010Z,100537.59
2022-09-05T01:42:19.081Z,100535.72
2022-09-05T01:43:30.371Z,100534.22
2022-09-05T01:44:22.512Z,100540.75
2022-09-05T01:45:44.661Z,100537.16
2022-09-05T01:46:58.351Z,100536.53
2022-09-05T01:48:04.235Z,100535.87
2022-09-05T01:49:02.700Z,100534.66
2022-09-05T01:50:00.868Z,100537.09
2022-09-05T01:51:05.338Z,100536.28
2022-09-05T01:52:21.013Z,100538.69
2022-09-05T01:53:28.002Z,100535.31
2022-09-05T01:54:32.992Z,100541.41
2022-09-05T01:55:36.503Z,100534.16
2022-09-05T01:56:54.291Z,100533.00
2022-09-05T01:58:11.801Z,100528.91
2022-09-05T01:59:39.043Z,100541.94
2022-09-05T02:00:38.171Z,100534.47
2022-09-05T02:01:33.972Z,100532.50
2022-09-05T02:02:22.181Z,100533.88
2022-09-05T02:03:24.786Z,100535.06
2022-09-05T02:04:23.040Z,100539.31
2022-09-05T02:05:48.534Z,100534.06
2022-09-05T02:06:45.191Z,100536.81
2022-09-05T02:08:24.501Z,100532.44
2022-09-05T02:09:20.491Z,100538.31
2022-09-05T02:10:26.049Z,100531.72
2022-09-05T02:11:13.972Z,100529.72
2022-09-05T02:12:15.461Z,100537.66
2022-09-05T02:13:29.231Z,100529.06
2022-09-05T02:14:33.792Z,100534.28
2022-09-05T02:15:27.325Z,100533.09
2022-09-05T02:16:35.212Z,100537.19
2022-09-05T02:17:49.497Z,100538.37
2022-09-05T02:18:56.751Z,100538.37
2022-09-05T02:19:47.870Z,100537.84
2022-09-05T02:20:46.469Z,100543.06
2022-09-05T02:21:56.374Z,100532.91
2022-09-05T02:22:45.091Z,100532.22
2022-09-05T02:23:43.122Z,100538.97
2022-09-05T02:24:32.842Z,100538.50
2022-09-05T02:26:01.564Z,100538.50
2022-09-05T02:26:50.872Z,100536.16
2022-09-05T02:28:04.766Z,100546.97
2022-09-05T02:29:28.839Z,100547.34
2022-09-05T02:30:20.042Z,100541.06
2022-09-05T02:31:42.073Z,100544.44
2022-09-05T02:32:39.270Z,100541.41
2022-09-05T02:33:32.540Z,100532.78
2022-09-05T02:34:31.262Z,100543.56
2022-09-05T02:35:36.030Z,100543.84
2022-09-05T02:36:25.711Z,100546.25
2022-09-05T02:37:22.854Z,100545.09
2022-09-05T02:42:38.367Z,100549.84
2022-09-05T02:45:01.323Z,100553.06
2022-09-05T02:45:02.202Z,100548.31
2022-09-05T02:45:19.933Z,100548.19
2022-09-05T02:45:20.115Z,100553.78
2022-09-05T02:45:38.530Z,100555.19
2022-09-05T02:46:56.366Z,100554.91
2022-09-05T02:47:47.301Z,100550.53
2022-09-05T02:48:46.090Z,100557.31
2022-09-05T02:52:02.166Z,100556.81
2022-09-05T02:57:24.866Z,100554.22
2022-09-05T02:57:24.974Z,100554.78
2022-09-05T02:57:34.405Z,100560.81
2022-09-05T02:57:34.884Z,100556.78
2022-09-05T02:57:36.863Z,100561.28
2022-09-05T02:58:06.513Z,100551.81
2022-09-05T02:59:35.751Z,100564.19
2022-09-05T03:00:29.649Z,100558.44
2022-09-05T03:01:31.041Z,100555.31
2022-09-05T03:02:29.802Z,100557.66
2022-09-05T03:03:39.282Z,100559.88
2022-09-05T03:04:52.510Z,100555.47
2022-09-05T03:05:59.282Z,100560.22
2022-09-05T03:07:07.711Z,100556.31
2022-09-05T03:08:20.613Z,100555.31
2022-09-05T03:09:09.710Z,100553.94
2022-09-05T03:10:17.522Z,100556.97
2022-09-05T03:11:07.110Z,100553.94
2022-09-05T03:12:32.101Z,100555.28
2022-09-05T03:13:48.944Z,100551.34
2022-09-05T03:15:22.775Z,100553.53
2022-09-05T03:16:25.406Z,100553.72
2022-09-05T03:17:42.371Z,100551.69
2022-09-05T03:19:01.080Z,100550.03
2022-09-05T03:20:11.881Z,100553.41
2022-09-05T03:21:20.411Z,100543.56
2022-09-05T03:22:26.762Z,100546.28
2022-09-05T03:23:19.662Z,100543.56
2022-09-05T03:24:41.030Z,100550.69
2022-09-05T03:25:51.221Z,100542.41
2022-09-05T03:27:02.161Z,100546.78
2022-09-05T03:27:53.591Z,100542.19
2022-09-05T03:29:14.692Z,100545.09
2022-09-05T03:30:15.583Z,100545.78
2022-09-05T03:31:37.842Z,100549.47
2022-09-05T03:32:33.471Z,100540.19
2022-09-05T03:33:56.922Z,100547.19
2022-09-05T03:35:08.935Z,100550.03
2022-09-05T03:36:23.871Z,100546.66
2022-09-05T03:37:48.489Z,100552.59
2022-09-05T03:38:38.011Z,100547.72
2022-09-05T03:39:33.664Z,100550.22
2022-09-05T03:40:54.692Z,100551.09
2022-09-05T03:42:14.857Z,100549.37
2022-09-05T03:43:39.913Z,100555.63
2022-09-05T03:44:57.402Z,100558.72
2022-09-05T03:46:02.860Z,100559.06
2022-09-05T03:47:04.211Z,100553.59
2022-09-05T03:48:27.841Z,100559.22
2022-09-05T03:50:53.182Z,100561.59
2022-09-05T03:57:07.801Z,100561.59
2022-09-05T03:57:15.714Z,100556.69
2022-09-05T03:57:20.726Z,100564.12
2022-09-05T03:57:26.751Z,100564.66
2022-09-05T03:57:37.074Z,100566.34
2022-09-05T03:58:55.449Z,100560.91
2022-09-05T03:59:47.791Z,100563.63
2022-09-05T04:00:35.331Z,100561.97
2022-09-05T04:04:37.913Z,100557.53
2022-09-05T04:08:06.240Z,100561.75
2022-09-05T04:08:08.077Z,100559.72
2022-09-05T04:08:16.468Z,100554.31
2022-09-05T04:08:19.347Z,100556.34
2022-09-05T04:08:41.723Z,100561.59
2022-09-05T04:09:51.667Z,100561.75
2022-09-05T04:11:08.212Z,100559.94
2022-09-05T04:11:58.632Z,100557.41
2022-09-05T04:13:07.861Z,100560.94
2022-09-05T04:14:01.426Z,100570.09
2022-09-05T04:14:54.841Z,100566.03
2022-09-05T04:15:44.181Z,100560.28
2022-09-05T04:16:49.988Z,100563.34
2022-09-05T04:17:45.449Z,100562.50
2022-09-05T04:18:41.728Z,100564.31
2022-09-05T04:19:43.039Z,100557.91
2022-09-05T04:20:52.212Z,100560.09
2022-09-05T04:22:00.337Z,100561.75
2022-09-05T04:23:01.689Z,100563.78
2022-09-05T04:24:32.981Z,100561.44
2022-09-05T04:25:25.073Z,100563.66
2022-09-05T04:26:30.402Z,100564.66
2022-09-05T04:27:19.821Z,100569.72
2022-09-05T04:28:31.373Z,100567.66
2022-09-05T04:29:18.082Z,100567.50
2022-09-05T04:30:40.584Z,100573.41
2022-09-05T04:32:17.948Z,100573.59
2022-09-05T04:33:20.022Z,100569.19
2022-09-05T04:34:11.771Z,100564.25
2022-09-05T04:35:19.663Z,100561.56
2022-09-05T04:36:26.731Z,100561.84
2022-09-05T04:37:48.816Z,100566.13
2022-09-05T04:38:41.361Z,100564.94
2022-09-05T04:39:29.017Z,100557.66
2022-09-05T04:40:37.595Z,100563.72
2022-09-05T04:41:39.838Z,100561.34
2022-09-05T04:42:27.549Z,100561.47
2022-09-05T04:43:31.334Z,100566.84
2022-09-05T04:44:22.691Z,100565.66
2022-09-05T04:45:12.397Z,100568.16
2022-09-05T04:46:07.252Z,100571.69
2022-09-05T04:46:57.353Z,100572.97
2022-09-05T04:47:50.882Z,100573.19
2022-09-05T04:49:07.148Z,100574.03
2022-09-05T04:50:01.529Z,100577.75
2022-09-05T04:51:05.194Z,100577.75
2022-09-05T04:52:22.893Z,100577.56
2022-09-05T04:53:36.859Z,100576.34
2022-09-05T04:54:31.876Z,100577.81
2022-09-05T04:55:26.874Z,100579.00
2022-09-05T04:56:18.780Z,100578.66
2022-09-05T04:57:13.893Z,100585.94
2022-09-05T04:58:07.421Z,100581.19
2022-09-05T05:00:57.676Z,100584.03
2022-09-05T05:06:04.864Z,100577.75
2022-09-05T05:06:05.533Z,100579.19
2022-09-05T05:06:09.089Z,100569.88
2022-09-05T05:06:12.586Z,100578.97
2022-09-05T05:06:13.726Z,100579.75
2022-09-05T05:06:45.577Z,100575.16
2022-09-05T05:07:40.796Z,100570.66
2022-09-05T05:08:48.006Z,100573.50
2022-09-05T05:09:45.220Z,100578.66
2022-09-05T05:17:54.982Z,100574.44
2022-09-05T05:17:56.979Z,100576.03
2022-09-05T05:17:57.276Z,100581.28
2022-09-05T05:18:00.729Z,100581.38
2022-09-05T05:18:06.548Z,100586.13
2022-09-05T05:18:09.599Z,100577.06
2022-09-05T05:18:56.103Z,100583.69
2022-09-05T05:19:48.318Z,100587.53
2022-09-05T05:21:25.531Z,100584.72
2022-09-05T05:22:16.760Z,100589.66
2022-09-05T05:23:16.052Z,100591.62
2022-09-05T05:24:21.730Z,100596.03
2022-09-05T05:25:10.702Z,100596.09
2022-09-05T05:25:59.281Z,100595.56
2022-09-05T05:26:57.044Z,100600.88
2022-09-05T05:28:14.992Z,100598.44
2022-09-05T05:29:21.758Z,100596.19
2022-09-05T05:30:12.881Z,100597.34
2022-09-05T05:31:10.626Z,100589.06
2022-09-05T05:32:00.689Z,100599.81
2022-09-05T05:32:51.930Z,100602.03
2022-09-05T05:33:40.403Z,100601.72
2022-09-05T05:34:43.139Z,100607.69
2022-09-05T05:35:32.022Z,100594.78
2022-09-05T05:36:40.311Z,100595.28
2022-09-05T05:38:11.970Z,100596.37
2022-09-05T05:39:03.379Z,100602.72
2022-09-05T05:40:19.451Z,100599.87
2022-09-05T05:41:24.382Z,100587.78
2022-09-05T05:42:20.660Z,100594.78
2022-09-05T05:43:16.291Z,100589.44
2022-09-05T05:44:15.083Z,100589.94
2022-09-05T05:45:02.151Z,100597.34
2022-09-05T05:45:59.334Z,100583.72
2022-09-05T05:47:09.171Z,100600.69
2022-09-05T05:48:04.549Z,100599.00
2022-09-05T05:48:57.473Z,100598.38
2022-09-05T05:50:05.472Z,100599.00
2022-09-05T05:50:58.020Z,100594.81
2022-09-05T05:52:17.871Z,100593.97
2022-09-05T05:53:44.434Z,100602.56
2022-09-05T05:55:11.298Z,100599.41
2022-09-05T05:56:22.023Z,100605.94
2022-09-05T05:57:21.173Z,100606.16
2022-09-05T05:58:45.081Z,100597.56
2022-09-05T06:00:04.939Z,100603.47
2022-09-05T06:00:55.160Z,100608.84
2022-09-05T06:02:21.810Z,100602.94
2022-09-05T06:03:39.246Z,100606.94
2022-09-05T06:05:04.430Z,100609.06
2022-09-05T06:06:19.230Z,100607.38
2022-09-05T06:07:27.499Z,100609.47
2022-09-05T06:10:44.385Z,100607.38
2022-09-05T06:14:50.623Z,100613.22
2022-09-05T06:15:01.182Z,100608.38
2022-09-05T06:15:02.810Z,100608.81
2022-09-05T06:15:09.259Z,100609.16
2022-09-05T06:16:13.904Z,100603.81
2022-09-05T06:17:44.481Z,100608.38
2022-09-05T06:19:10.861Z,100607.38
2022-09-05T06:22:04.681Z,100601.28
2022-09-05T06:22:06.099Z,100604.75
2022-09-05T06:22:59.981Z,100601.19
2022-09-05T06:23:59.612Z,100605.72
2022-09-05T06:25:23.552Z,100606.69
2022-09-05T06:26:44.201Z,100606.22
2022-09-05T06:28:18.007Z,100608.94
2022-09-05T06:29:08.657Z,100611.00
2022-09-05T06:30:09.651Z,100619.16
2022-09-05T06:31:30.918Z,100618.16
2022-09-05T06:32:36.131Z,100617.16
2022-09-05T06:33:28.851Z,100613.19
2022-09-05T06:34:35.501Z,100616.87
2022-09-05T06:35:47.079Z,100620.69
2022-09-05T06:36:49.030Z,100615.66
2022-09-05T06:38:00.392Z,100625.34
2022-09-05T06:39:11.861Z,100618.62
2022-09-05T06:40:04.451Z,100620.69
2022-09-05T06:41:00.158Z,100624.28
2022-09-05T06:41:57.921Z,100626.56
2022-09-05T06:43:05.210Z,100620.47
2022-09-05T06:44:37.331Z,100619.41
2022-09-05T06:45:46.491Z,100627.06
2022-09-05T06:46:54.580Z,100624.88
2022-09-05T06:47:45.254Z,100620.84
2022-09-05T06:48:46.007Z,100622.09
2022-09-05T06:49:43.973Z,100620.97
2022-09-05T06:51:08.540Z,100625.16
2022-09-05T06:52:21.565Z,100627.22
2022-09-05T06:53:37.588Z,100619.59
2022-09-05T06:54:59.474Z,100624.69
2022-09-05T06:56:11.170Z,100617.91
2022-09-05T06:57:07.210Z,100620.56
2022-09-05T06:58:12.381Z,100617.31
2022-09-05T06:59:27.131Z,100623.19
2022-09-05T07:00:23.231Z,100619.25
2022-09-05T07:01:10.398Z,100620.94
2022-09-05T07:02:12.641Z,100618.12
2022-09-05T07:03:24.914Z,100630.19
2022-09-05T07:05:14.801Z,100633.37
2022-09-05T07:05:38.811Z,100630.19
2022-09-05T07:07:10.661Z,100632.25
2022-09-05T07:08:36.099Z,100629.81
2022-09-05T07:09:38.201Z,100628.66
2022-09-05T07:10:51.092Z,100630.78
2022-09-05T07:12:07.022Z,100629.31
2022-09-05T07:13:10.994Z,100631.31
2022-09-05T07:14:20.612Z,100635.59
2022-09-05T07:15:25.760Z,100640.28
2022-09-05T07:16:38.931Z,100638.56
2022-09-05T07:17:48.497Z,100635.97
2022-09-05T07:19:05.676Z,100637.41
2022-09-05T07:20:04.060Z,100628.41
2022-09-05T07:21:16.297Z,100631.44
2022-09-05T07:22:47.965Z,100633.97
2022-09-05T07:24:05.494Z,100640.75
2022-09-05T07:24:53.590Z,100629.00
2022-09-05T07:25:45.753Z,100634.41
2022-09-05T07:26:54.152Z,100641.97
2022-09-05T07:28:28.837Z,100639.06
2022-09-05T07:29:11.892Z,100633.50
2022-09-05T07:30:02.192Z,100638.56
2022-09-05T07:30:51.912Z,100633.63
2022-09-05T07:31:39.183Z,100636.03
2022-09-05T07:32:26.912Z,100635.53
2022-09-05T07:33:19.513Z,100635.09
2022-09-05T07:34:21.068Z,100634.59
2022-09-05T07:35:15.671Z,100634.47
2022-09-05T07:36:11.950Z,100639.28
2022-09-05T07:37:14.009Z,100639.63
2022-09-05T07:38:15.511Z,100636.53
2022-09-05T07:39:25.288Z,100633.97
2022-09-05T07:40:25.855Z,100637.66
2022-09-05T07:41:31.532Z,100640.16
2022-09-05T07:42:40.323Z,100637.16
2022-09-05T07:43:39.691Z,100643.47
2022-09-05T07:44:35.722Z,100635.50
2022-09-05T07:45:25.644Z,100634.19
2022-09-05T07:46:18.136Z,100634.56
2022-09-05T07:47:13.721Z,100641.28
2022-09-05T07:48:05.999Z,100636.75
2022-09-05T07:49:02.961Z,100638.53
2022-09-05T07:51:31.880Z,100640.66
2022-09-05T07:54:00.562Z,100646.66
2022-09-05T07:56:47.566Z,100640.16
2022-09-05T07:56:51.340Z,100637.69
2022-09-05T07:57:00.084Z,100641.16
2022-09-05T07:57:10.465Z,100636.59
2022-09-05T07:58:09.249Z,100634.13
2022-09-05T07:58:56.012Z,100629.47
2022-09-05T07:59:47.312Z,100634.25
2022-09-05T08:00:37.132Z,100635.94
2022-09-05T08:01:24.039Z,100628.88
2022-09-05T08:02:12.395Z,100626.47
2022-09-05T08:03:11.150Z,100625.44
2022-09-05T08:04:02.491Z,100632.25
2022-09-05T08:04:53.021Z,100629.03
2022-09-05T08:05:47.315Z,100623.75
2022-09-05T08:07:46.044Z,100630.09
2022-09-05T08:07:48.759Z,100623.03
2022-09-05T08:09:18.484Z,100623.44
2022-09-05T08:10:10.409Z,100625.59
2022-09-05T08:11:23.566Z,100615.56
2022-09-05T08:12:27.769Z,100618.03
2022-09-05T08:13:23.500Z,100625.69
2022-09-05T08:14:44.079Z,100618.53
2022-09-05T08:15:40.999Z,100619.00
2022-09-05T08:16:42.070Z,100622.72
2022-09-05T08:17:30.296Z,100627.13
2022-09-05T08:18:24.270Z,100626.06
2022-09-05T08:19:40.230Z,100628.44
2022-09-05T08:20:26.941Z,100631.09
2022-09-05T08:21:27.141Z,100630.13
2022-09-05T08:22:21.663Z,100631.69
2022-09-05T08:23:27.792Z,100624.34
2022-09-05T08:24:25.030Z,100627.84
2022-09-05T08:25:36.250Z,100625.91
2022-09-05T08:26:44.066Z,100631.03
2022-09-05T08:27:50.941Z,100629.81
2022-09-05T08:28:55.683Z,100627.41
2022-09-05T08:29:46.283Z,100624.16
2022-09-05T08:30:39.941Z,100630.63
2022-09-05T08:32:09.820Z,100628.22
2022-09-05T08:33:10.251Z,100625.59
2022-09-05T08:34:00.491Z,100629.19
2022-09-05T08:34:57.282Z,100628.34
2022-09-05T08:36:15.321Z,100624.84
2022-09-05T08:37:02.627Z,100622.47
2022-09-05T08:37:50.511Z,100625.94
2022-09-05T08:38:40.877Z,100620.91
2022-09-05T08:39:29.697Z,100625.66
2022-09-05T08:40:27.701Z,100619.41
2022-09-05T08:41:43.062Z,100617.47
2022-09-05T08:45:52.067Z,100619.16
2022-09-05T08:46:39.246Z,100623.84
2022-09-05T08:46:40.346Z,100619.16
2022-09-05T08:46:55.621Z,100616.03
2022-09-05T08:47:48.622Z,100617.88
2022-09-05T08:49:12.289Z,100612.72
2022-09-05T08:50:17.572Z,100614.78
2022-09-05T08:51:22.823Z,100619.44
2022-09-05T08:52:27.992Z,100620.63
2022-09-05T08:53:45.886Z,100619.87
2022-09-05T08:54:37.859Z,100619.41
2022-09-05T08:55:45.850Z,100619.25
2022-09-05T08:57:01.901Z,100615.94
2022-09-05T08:58:03.381Z,100610.63
2022-09-05T08:59:28.349Z,100616.66
2022-09-05T09:00:24.869Z,100609.72
2022-09-05T09:02:14.375Z,100610.88
2022-09-05T09:03:57.776Z,100619.69
2022-09-05T09:05:14.351Z,100613.94
2022-09-05T09:06:15.694Z,100618.59
2022-09-05T09:07:36.775Z,100612.09
2022-09-05T09:08:55.823Z,100613.50
2022-09-05T09:09:54.611Z,100609.00
2022-09-05T09:10:49.385Z,100612.59
2022-09-05T09:11:59.421Z,100609.84
2022-09-05T09:13:04.283Z,100602.28
2022-09-05T09:13:56.769Z,100600.22
2022-09-05T09:15:01.202Z,100607.06
2022-09-05T09:16:24.007Z,100613.66
2022-09-05T09:17:26.926Z,100601.12
2022-09-05T09:18:18.707Z,100607.34
2022-09-05T09:19:34.641Z,100606.94
2022-09-05T09:20:33.673Z,100598.81
2022-09-05T09:21:24.471Z,100595.81
2022-09-05T09:22:33.501Z,100605.56
2022-09-05T09:23:32.294Z,100603.22
2022-09-05T09:24:33.510Z,100606.56
2022-09-05T09:25:24.930Z,100591.78
2022-09-05T09:26:17.760Z,100589.09
2022-09-05T09:28:05.939Z,100586.16
2022-09-05T09:29:04.491Z,100592.34
2022-09-05T09:29:52.210Z,100594.84
2022-09-05T09:30:41.809Z,100583.81
2022-09-05T09:31:31.373Z,100590.16
2022-09-05T09:32:21.818Z,100587.62
2022-09-05T09:33:08.832Z,100587.53
2022-09-05T09:33:55.561Z,100587.94
2022-09-05T09:34:49.399Z,100593.44
2022-09-05T09:35:59.954Z,100595.53
2022-09-05T09:37:49.568Z,100587.47
2022-09-05T09:39:38.310Z,100587.97
2022-09-05T09:40:43.778Z,100590.22
2022-09-05T09:41:58.321Z,100583.88
2022-09-05T09:42:51.657Z,100582.66
2022-09-05T09:43:52.938Z,100586.81
2022-09-05T09:45:28.235Z,100587.31
2022-09-05T09:46:18.264Z,100581.09
2022-09-05T09:47:10.578Z,100583.75
2022-09-05T09:48:31.225Z,100585.00
2022-09-05T09:49:23.204Z,100578.78
2022-09-05T09:50:24.490Z,100580.94
2022-09-05T09:51:33.121Z,100583.41
2022-09-05T09:52:34.830Z,100573.53
2022-09-05T09:53:37.134Z,100573.06
2022-09-05T09:54:27.171Z,100569.53
2022-09-05T09:55:41.027Z,100571.28
2022-09-05T09:57:04.961Z,100575.09
2022-09-05T09:58:20.651Z,100576.84
2022-09-05T09:59:24.860Z,100572.50
2022-09-05T10:00:24.143Z,100575.06
2022-09-05T10:01:35.380Z,100574.44
2022-09-05T10:04:27.530Z,100578.50
2022-09-05T10:08:03.802Z,100582.56
2022-09-05T10:10:33.939Z,100573.13
2022-09-05T10:10:35.274Z,100580.63
2022-09-05T10:10:49.912Z,100582.22
2022-09-05T10:11:00.719Z,100585.25
2022-09-05T10:11:41.317Z,100583.06
2022-09-05T10:12:41.449Z,100577.16
2022-09-05T10:14:05.236Z,100580.38
2022-09-05T10:15:03.771Z,100577.03
2022-09-05T10:16:12.322Z,100571.38
2022-09-05T10:17:15.723Z,100571.56
2022-09-05T10:18:22.437Z,100564.66
2022-09-05T10:21:17.394Z,100565.97
2022-09-05T10:22:44.901Z,100563.19
2022-09-05T10:23:52.861Z,100559.84
2022-09-05T10:24:46.419Z,100557.41
2022-09-05T10:25:48.742Z,100557.16
2022-09-05T10:26:38.230Z,100564.09
2022-09-05T10:27:57.731Z,100562.19
2022-09-05T10:28:56.702Z,100561.12
2022-09-05T10:30:06.653Z,100561.69
2022-09-05T10:33:14.002Z,100563.72
2022-09-05T10:35:05.902Z,100551.25
2022-09-05T10:35:07.967Z,100558.03
2022-09-05T10:35:12.934Z,100553.28
2022-09-05T10:36:03.242Z,100545.03
2022-09-05T10:36:54.763Z,100549.28
2022-09-05T10:37:43.722Z,100545.16
2022-09-05T10:38:43.609Z,100550.41
2022-09-05T10:39:34.126Z,100545.22
2022-09-05T10:40:25.731Z,100543.62
2022-09-05T10:41:22.820Z,100540.34
2022-09-05T10:42:19.799Z,100546.66
2022-09-05T10:43:31.279Z,100546.19
2022-09-05T10:44:54.392Z,100543.81
2022-09-05T10:45:56.151Z,100538.13
2022-09-05T10:46:57.189Z,100534.16
2022-09-05T10:48:13.112Z,100532.25
2022-09-05T10:49:05.443Z,100541.16
2022-09-05T10:50:03.551Z,100542.22
2022-09-05T10:51:29.892Z,100537.78
2022-09-05T10:52:37.251Z,100537.56
2022-09-05T10:53:45.842Z,100532.88
2022-09-05T10:54:47.472Z,100525.69
2022-09-05T10:55:52.276Z,100529.03
2022-09-05T10:56:46.955Z,100532.94
2022-09-05T10:57:36.781Z,100535.13
2022-09-05T10:59:34.497Z,100532.37
2022-09-05T11:02:24.316Z,100524.69
2022-09-05T11:02:24.966Z,100530.47
2022-09-05T11:02:58.580Z,100528.84
2022-09-05T11:03:52.450Z,100532.78
2022-09-05T11:05:04.238Z,100530.06
2022-09-05T11:05:59.272Z,100527.88
2022-09-05T11:07:17.881Z,100529.22
2022-09-05T11:08:33.320Z,100527.25
2022-09-05T11:09:47.932Z,100519.25
2022-09-05T11:10:57.658Z,100520.91
2022-09-05T11:11:50.411Z,100519.72
2022-09-05T11:12:57.643Z,100518.03
2022-09-05T11:14:00.946Z,100516.34
2022-09-05T11:14:52.491Z,100517.72
2022-09-05T11:16:04.491Z,100509.69
2022-09-05T11:16:56.743Z,100514.44
2022-09-05T11:17:56.281Z,100512.75
2022-09-05T11:19:05.470Z,100516.59
2022-09-05T11:20:34.788Z,100514.69
2022-09-05T11:21:30.601Z,100507.97
2022-09-05T11:22:23.460Z,100506.41
2022-09-05T11:23:18.670Z,100507.78
2022-09-05T11:24:11.322Z,100508.91
2022-09-05T11:25:04.100Z,100505.06
2022-09-05T11:26:00.882Z,100503.94
2022-09-05T11:27:09.647Z,100496.81
2022-09-05T11:28:34.192Z,100502.81
2022-09-05T11:29:33.221Z,100500.59
2022-09-05T11:30:31.028Z,100491.84
2022-09-05T11:31:23.529Z,100497.13
2022-09-05T11:38:52.364Z,100493.81
2022-09-05T11:39:48.632Z,100493.34
2022-09-05T11:39:50.156Z,100495.22
2022-09-05T11:40:03.913Z,100491.19
2022-09-05T11:40:04.704Z,100492.00
2022-09-05T11:40:09.001Z,100497.50
2022-09-05T11:41:16.298Z,100493.41
2022-09-05T11:42:09.172Z,100483.38
2022-09-05T11:43:33.240Z,100492.00
2022-09-05T11:44:35.831Z,100486.16
2022-09-05T11:45:43.372Z,100488.41
2022-09-05T11:47:28.157Z,100489.22
2022-09-05T11:48:53.542Z,100483.12
2022-09-05T11:49:56.480Z,100487.81
2022-09-05T11:51:02.414Z,100487.84
2022-09-05T11:52:26.451Z,100489.47
2022-09-05T11:53:42.258Z,100485.06
2022-09-05T11:54:56.574Z,100485.91
2022-09-05T11:56:06.210Z,100481.75
2022-09-05T11:56:52.901Z,100479.25
2022-09-05T11:57:50.769Z,100482.88
2022-09-05T11:58:48.529Z,100478.41
2022-09-05T12:00:30.569Z,100473.44
2022-09-05T12:01:42.107Z,100478.72
2022-09-05T12:02:27.496Z,100471.22
2022-09-05T12:03:59.824Z,100474.81
2022-09-05T12:05:50.430Z,100471.47
2022-09-05T12:06:48.088Z,100468.16
2022-09-05T12:08:00.338Z,100466.25
2022-09-05T12:08:54.981Z,100462.34
2022-09-05T12:10:46.967Z,100468.72
2022-09-05T12:11:57.220Z,100466.50
2022-09-05T12:13:07.841Z,100474.81
2022-09-05T12:15:29.626Z,100469.22
2022-09-05T12:16:54.141Z,100466.75
2022-09-05T12:17:48.865Z,100462.56
2022-09-05T12:19:18.879Z,100461.47
2022-09-05T12:20:22.908Z,100456.81
2022-09-05T12:21:44.900Z,100459.53
2022-09-05T12:22:36.781Z,100457.25
2022-09-05T12:24:02.337Z,100456.72
2022-09-05T12:25:16.990Z,100458.16
2022-09-05T12:27:41.322Z,100458.69
2022-09-05T12:27:44.659Z,100453.94
2022-09-05T12:29:27.146Z,100458.38
2022-09-05T12:29:59.940Z,100454.81
2022-09-05T12:31:08.499Z,100453.19
2022-09-05T12:33:16.186Z,100453.47
2022-09-05T12:35:52.985Z,100462.88
2022-09-05T12:36:10.578Z,100453.69
2022-09-05T12:40:27.587Z,100457.34
2022-09-05T12:40:52.030Z,100456.78
2022-09-05T12:40:55.969Z,100456.53
2022-09-05T12:41:36.333Z,100454.31
2022-09-05T12:41:41.216Z,100476.44
2022-09-05T12:41:44.327Z,100455.41
2022-09-05T12:44:34.742Z,100460.13
2022-09-05T12:44:42.469Z,100454.53
2022-09-05T12:45:19.513Z,100447.88
2022-09-05T12:46:24.240Z,100454.47
2022-09-05T12:47:18.724Z,100450.03
2022-09-05T12:48:13.621Z,100452.25
2022-09-05T12:49:07.411Z,100447.56
2022-09-05T12:50:15.077Z,100454.25
2022-09-05T12:51:09.501Z,100445.69
2022-09-05T12:52:03.567Z,100442.03
2022-09-05T12:52:52.293Z,100442.25